createdAt,value
2018-08-13T00:02:22.622Z,19.30
2018-08-13T00:04:50.987Z,19.30
2018-08-13T00:07:19.334Z,19.20
2018-08-13T00:09:47.711Z,19.20
2018-08-13T00:12:16.084Z,19.20
2018-08-13T00:14:44.458Z,19.10
2018-08-13T00:17:12.788Z,19.10
2018-08-13T00:19:41.157Z,19.10
2018-08-13T00:22:09.512Z,19.00
2018-08-13T00:24:37.910Z,19.00
2018-08-13T00:27:06.252Z,19.00
2018-08-13T00:29:34.612Z,18.90
2018-08-13T00:32:02.980Z,18.90
2018-08-13T00:34:31.335Z,18.90
2018-08-13T00:36:59.670Z,18.80
2018-08-13T00:39:28.103Z,18.80
2018-08-13T00:41:56.436Z,18.80
2018-08-13T00:44:24.832Z,18.80
2018-08-13T00:46:53.213Z,18.70
2018-08-13T00:49:21.575Z,18.70
2018-08-13T00:51:49.956Z,18.60
2018-08-13T00:54:18.348Z,18.60
2018-08-13T00:56:46.708Z,18.50
2018-08-13T00:59:15.095Z,18.50
2018-08-13T01:01:43.497Z,18.40
2018-08-13T01:04:11.834Z,18.40
2018-08-13T01:06:40.212Z,18.30
2018-08-13T01:09:09.655Z,18.30
2018-08-13T01:11:38.028Z,18.20
2018-08-13T01:14:06.727Z,18.20
2018-08-13T01:16:35.087Z,18.20
2018-08-13T01:19:03.452Z,18.10
2018-08-13T01:21:31.832Z,18.00
2018-08-13T01:24:00.192Z,18.00
2018-08-13T01:26:28.595Z,17.90
2018-08-13T01:28:56.980Z,17.90
2018-08-13T01:31:25.402Z,17.90
2018-08-13T01:33:53.745Z,17.90
2018-08-13T01:36:22.120Z,17.90
2018-08-13T01:38:50.471Z,17.90
2018-08-13T01:41:19.584Z,17.80
2018-08-13T01:43:48.279Z,17.80
2018-08-13T01:46:16.656Z,17.80
2018-08-13T01:48:45.011Z,17.80
2018-08-13T01:51:13.397Z,17.70
2018-08-13T01:53:41.755Z,17.70
2018-08-13T01:56:10.117Z,17.70
2018-08-13T01:58:38.481Z,17.60
2018-08-13T02:01:06.863Z,17.60
2018-08-13T02:03:35.214Z,17.60
2018-08-13T02:06:03.624Z,17.50
2018-08-13T02:08:31.951Z,17.50
2018-08-13T02:11:00.337Z,17.50
2018-08-13T02:13:28.691Z,17.40
2018-08-13T02:15:57.076Z,17.40
2018-08-13T02:18:25.408Z,17.40
2018-08-13T02:20:53.784Z,17.40
2018-08-13T02:23:22.130Z,17.40
2018-08-13T02:25:50.511Z,17.40
2018-08-13T02:28:18.871Z,17.40
2018-08-13T02:30:47.232Z,17.30
2018-08-13T02:33:15.599Z,17.30
2018-08-13T02:35:44.005Z,17.30
2018-08-13T02:38:15.475Z,17.30
2018-08-13T02:40:43.951Z,17.30
2018-08-13T02:43:12.452Z,17.30
2018-08-13T02:45:40.792Z,17.30
2018-08-13T02:48:09.238Z,17.20
2018-08-13T02:50:37.599Z,17.20
2018-08-13T02:53:06.387Z,17.20
2018-08-13T02:55:34.741Z,17.10
2018-08-13T02:58:03.129Z,17.20
2018-08-13T03:00:31.536Z,17.20
2018-08-13T03:02:59.951Z,17.20
2018-08-13T03:05:28.299Z,17.20
2018-08-13T03:07:56.672Z,17.20
2018-08-13T03:10:25.030Z,17.20
2018-08-13T03:12:53.391Z,17.20
2018-08-13T03:15:21.737Z,17.20
2018-08-13T03:17:50.143Z,17.20
2018-08-13T03:20:18.493Z,17.20
2018-08-13T03:22:46.856Z,17.20
2018-08-13T03:25:15.211Z,17.20
2018-08-13T03:27:43.608Z,17.20
2018-08-13T03:30:12.717Z,17.10
2018-08-13T03:32:41.343Z,17.10
2018-08-13T03:35:09.935Z,17.10
2018-08-13T03:37:38.351Z,17.10
2018-08-13T03:40:08.860Z,17.10
2018-08-13T03:42:37.240Z,17.10
2018-08-13T03:45:06.849Z,17.10
2018-08-13T03:47:35.202Z,17.10
2018-08-13T03:50:03.592Z,17.10
2018-08-13T03:52:31.982Z,17.00
2018-08-13T03:55:00.328Z,17.00
2018-08-13T03:57:28.728Z,17.00
2018-08-13T03:59:57.100Z,17.00
2018-08-13T04:02:25.455Z,17.00
2018-08-13T04:04:53.812Z,17.00
2018-08-13T04:07:22.212Z,17.00
2018-08-13T04:09:50.535Z,17.00
2018-08-13T04:12:18.897Z,17.00
2018-08-13T04:14:47.249Z,17.00
2018-08-13T04:17:15.615Z,17.00
2018-08-13T04:19:43.988Z,17.00
2018-08-13T04:22:12.364Z,17.00
2018-08-13T04:24:40.788Z,17.00
2018-08-13T04:27:09.149Z,17.00
2018-08-13T04:29:38.609Z,17.00
2018-08-13T04:32:07.236Z,17.00
2018-08-13T04:34:35.636Z,16.90
2018-08-13T04:37:03.980Z,16.90
2018-08-13T04:39:32.379Z,16.90
2018-08-13T04:42:00.714Z,17.00
2018-08-13T04:44:29.102Z,16.90
2018-08-13T04:46:57.423Z,16.90
2018-08-13T04:49:25.808Z,16.90
2018-08-13T04:51:54.160Z,16.90
2018-08-13T04:54:22.536Z,16.90
2018-08-13T04:56:50.900Z,16.90
2018-08-13T04:59:19.649Z,16.90
2018-08-13T05:01:48.008Z,17.00
2018-08-13T05:04:16.364Z,17.00
2018-08-13T05:06:44.692Z,17.00
2018-08-13T05:09:13.080Z,17.00
2018-08-13T05:11:41.467Z,17.00
2018-08-13T05:14:09.902Z,17.00
2018-08-13T05:16:38.274Z,17.00
2018-08-13T05:19:06.646Z,17.10
2018-08-13T05:21:35.037Z,17.20
2018-08-13T05:24:03.447Z,17.20
2018-08-13T05:26:31.783Z,17.30
2018-08-13T05:29:00.196Z,17.40
2018-08-13T05:31:28.576Z,17.40
2018-08-13T05:33:56.927Z,17.50
2018-08-13T05:36:25.255Z,17.60
2018-08-13T05:38:53.632Z,17.60
2018-08-13T05:41:21.977Z,17.70
2018-08-13T05:43:50.369Z,17.90
2018-08-13T05:46:18.760Z,17.90
2018-08-13T05:48:47.155Z,18.10
2018-08-13T05:51:15.531Z,18.20
2018-08-13T05:53:44.084Z,18.40
2018-08-13T05:56:12.444Z,18.60
2018-08-13T05:58:40.820Z,18.70
2018-08-13T06:01:09.160Z,18.80
2018-08-13T06:03:37.535Z,19.00
2018-08-13T06:06:05.915Z,19.10
2018-08-13T06:08:34.281Z,19.20
2018-08-13T06:11:02.619Z,19.30
2018-08-13T06:13:31.077Z,19.40
2018-08-13T06:15:59.420Z,19.50
2018-08-13T06:18:27.807Z,19.60
2018-08-13T06:20:56.147Z,19.70
2018-08-13T06:23:24.517Z,19.80
2018-08-13T06:25:52.939Z,19.90
2018-08-13T06:28:21.289Z,20.00
2018-08-13T06:30:49.692Z,20.10
2018-08-13T06:33:18.076Z,20.30
2018-08-13T06:35:46.443Z,20.40
2018-08-13T06:38:14.772Z,20.60
2018-08-13T06:40:43.160Z,20.70
2018-08-13T06:43:11.488Z,20.80
2018-08-13T06:45:39.860Z,20.80
2018-08-13T06:48:08.223Z,20.90
2018-08-13T06:50:36.593Z,20.90
2018-08-13T06:53:04.967Z,21.00
2018-08-13T06:55:33.348Z,21.00
2018-08-13T06:58:01.724Z,21.10
2018-08-13T07:00:30.112Z,21.20
2018-08-13T07:02:58.473Z,21.30
2018-08-13T07:05:26.847Z,21.50
2018-08-13T07:07:55.196Z,21.60
2018-08-13T07:10:23.567Z,21.80
2018-08-13T07:12:51.966Z,21.90
2018-08-13T07:15:20.352Z,22.00
2018-08-13T07:17:48.730Z,22.10
2018-08-13T07:20:17.891Z,22.20
2018-08-13T07:22:46.239Z,22.30
2018-08-13T07:25:14.644Z,22.30
2018-08-13T07:27:43.102Z,22.40
2018-08-13T07:30:12.915Z,22.50
2018-08-13T07:32:41.649Z,22.60
2018-08-13T07:35:10.092Z,22.60
2018-08-13T07:37:38.441Z,22.70
2018-08-13T07:40:10.646Z,22.70
2018-08-13T07:42:39.365Z,22.70
2018-08-13T07:45:08.267Z,22.80
2018-08-13T07:47:36.610Z,22.90
2018-08-13T07:50:06.187Z,22.90
2018-08-13T07:52:34.565Z,23.00
2018-08-13T07:55:02.944Z,23.10
2018-08-13T07:57:31.275Z,23.10
2018-08-13T07:59:59.708Z,23.20
2018-08-13T08:02:28.143Z,23.30
2018-08-13T08:04:56.559Z,23.30
2018-08-13T08:07:25.930Z,23.40
2018-08-13T08:09:54.435Z,23.40
2018-08-13T08:12:22.791Z,23.50
2018-08-13T08:14:51.157Z,23.50
2018-08-13T08:17:19.517Z,23.60
2018-08-13T08:19:47.877Z,23.60
2018-08-13T08:22:16.282Z,23.60
2018-08-13T08:24:44.671Z,23.70
2018-08-13T08:27:13.125Z,23.60
2018-08-13T08:29:41.520Z,23.60
2018-08-13T08:32:09.913Z,23.60
2018-08-13T08:34:38.270Z,23.60
2018-08-13T08:37:06.692Z,23.60
2018-08-13T08:39:35.076Z,23.50
2018-08-13T08:42:03.497Z,23.50
2018-08-13T08:44:31.857Z,23.50
2018-08-13T08:47:00.230Z,23.40
2018-08-13T08:49:28.588Z,23.30
2018-08-13T08:51:56.936Z,23.30
2018-08-13T08:54:25.288Z,23.20
2018-08-13T08:56:53.677Z,23.20
2018-08-13T08:59:22.040Z,23.10
2018-08-13T09:01:50.404Z,23.10
2018-08-13T09:04:18.795Z,23.00
2018-08-13T09:06:47.171Z,22.90
2018-08-13T09:09:15.542Z,22.80
2018-08-13T09:11:43.911Z,22.80
2018-08-13T09:14:12.307Z,22.70
2018-08-13T09:16:44.207Z,22.70
2018-08-13T09:19:23.683Z,22.80
2018-08-13T09:21:52.807Z,22.80
2018-08-13T09:24:32.543Z,22.70
2018-08-13T09:27:12.264Z,22.70
2018-08-13T09:29:51.906Z,22.70
2018-08-13T09:32:33.549Z,22.70
2018-08-13T09:35:20.499Z,22.60
2018-08-13T09:37:48.870Z,22.50
2018-08-13T09:40:17.233Z,22.50
2018-08-13T09:42:45.643Z,22.50
2018-08-13T09:45:13.984Z,22.40
2018-08-13T09:47:42.476Z,22.40
2018-08-13T09:50:13.976Z,22.40
2018-08-13T09:52:43.109Z,22.50
2018-08-13T09:55:11.889Z,22.40
2018-08-13T09:57:40.269Z,22.40
2018-08-13T10:00:14.548Z,22.40
2018-08-13T10:02:43.194Z,22.40
2018-08-13T10:05:11.603Z,22.50
2018-08-13T10:07:40.132Z,22.50
2018-08-13T10:10:09.423Z,22.60
2018-08-13T10:12:37.848Z,22.60
2018-08-13T10:15:06.688Z,22.70
2018-08-13T10:17:35.187Z,22.70
2018-08-13T10:20:04.229Z,22.70
2018-08-13T10:22:32.656Z,22.70
2018-08-13T10:25:01.149Z,22.60
2018-08-13T10:27:29.572Z,22.60
2018-08-13T10:29:57.961Z,22.60
2018-08-13T10:32:26.384Z,22.60
2018-08-13T10:34:54.760Z,22.70
2018-08-13T10:37:23.236Z,22.80
2018-08-13T10:39:51.576Z,22.90
2018-08-13T10:42:20.007Z,22.90
2018-08-13T10:44:48.402Z,23.00
2018-08-13T10:47:16.780Z,23.00
2018-08-13T10:49:45.157Z,23.00
2018-08-13T10:52:13.538Z,23.00
2018-08-13T10:54:41.967Z,23.00
2018-08-13T10:57:10.344Z,23.00
2018-08-13T10:59:38.777Z,23.10
2018-08-13T11:02:07.141Z,23.10
2018-08-13T11:04:35.556Z,23.30
2018-08-13T11:07:03.936Z,23.40
2018-08-13T11:09:32.371Z,23.50
2018-08-13T11:12:00.729Z,23.50
2018-08-13T11:14:29.096Z,23.60
2018-08-13T11:16:57.430Z,23.60
2018-08-13T11:19:25.791Z,23.50
2018-08-13T11:21:54.170Z,23.50
2018-08-13T11:24:22.567Z,23.40
2018-08-13T11:26:50.911Z,23.40
2018-08-13T11:29:19.280Z,23.40
2018-08-13T11:31:47.719Z,23.40
2018-08-13T11:34:16.099Z,23.40
2018-08-13T11:36:46.628Z,23.40
2018-08-13T11:39:17.352Z,23.50
2018-08-13T11:41:46.080Z,23.50
2018-08-13T11:44:14.765Z,23.50
2018-08-13T11:46:43.127Z,23.50
2018-08-13T11:49:11.521Z,23.50
2018-08-13T11:51:39.992Z,23.60
2018-08-13T11:54:08.384Z,23.60
2018-08-13T11:56:36.728Z,23.60
2018-08-13T11:59:05.129Z,23.60
2018-08-13T12:01:33.485Z,23.50
2018-08-13T12:04:01.925Z,23.50
2018-08-13T12:06:30.277Z,23.50
2018-08-13T12:08:58.648Z,23.50
2018-08-13T12:11:27.020Z,23.60
2018-08-13T12:13:55.382Z,23.70
2018-08-13T12:16:23.727Z,24.00
2018-08-13T12:18:52.082Z,24.10
2018-08-13T12:21:20.436Z,24.30
2018-08-13T12:23:48.829Z,24.40
2018-08-13T12:26:17.183Z,24.50
2018-08-13T12:28:45.583Z,24.70
2018-08-13T12:31:13.952Z,24.90
2018-08-13T12:33:42.317Z,25.10
2018-08-13T12:36:10.667Z,25.30
2018-08-13T12:38:39.069Z,25.70
2018-08-13T12:41:07.515Z,26.00
2018-08-13T12:43:35.871Z,26.50
2018-08-13T12:46:04.241Z,26.80
2018-08-13T12:48:32.629Z,26.90
2018-08-13T12:51:01.052Z,27.00
2018-08-13T12:53:29.408Z,27.20
2018-08-13T12:55:57.820Z,27.20
2018-08-13T12:58:26.153Z,27.20
2018-08-13T13:01:00.488Z,27.10
2018-08-13T13:03:29.228Z,27.00
2018-08-13T13:05:57.608Z,26.90
2018-08-13T13:08:25.958Z,26.80
2018-08-13T13:10:54.352Z,26.70
2018-08-13T13:13:22.708Z,26.70
2018-08-13T13:15:51.108Z,26.60
2018-08-13T13:18:19.496Z,26.50
2018-08-13T13:20:47.893Z,26.50
2018-08-13T13:23:16.267Z,26.60
2018-08-13T13:25:44.659Z,26.60
2018-08-13T13:28:13.015Z,26.60
2018-08-13T13:30:41.399Z,26.60
2018-08-13T13:33:09.769Z,26.60
2018-08-13T13:35:38.154Z,26.40
2018-08-13T13:38:06.519Z,26.30
2018-08-13T13:40:34.910Z,26.20
2018-08-13T13:43:03.288Z,26.00
2018-08-13T13:45:31.657Z,25.90
2018-08-13T13:48:00.013Z,25.80
2018-08-13T13:50:28.403Z,25.70
2018-08-13T13:52:56.782Z,25.70
2018-08-13T13:55:25.212Z,25.70
2018-08-13T13:57:53.585Z,25.70
2018-08-13T14:00:22.304Z,25.70
2018-08-13T14:02:51.671Z,25.70
2018-08-13T14:05:20.355Z,25.60
2018-08-13T14:07:48.700Z,25.60
2018-08-13T14:10:18.701Z,25.50
2018-08-13T14:12:47.113Z,25.40
2018-08-13T14:15:17.099Z,25.40
2018-08-13T14:17:45.491Z,25.20
2018-08-13T14:20:13.939Z,25.10
2018-08-13T14:22:42.298Z,25.00
2018-08-13T14:25:12.437Z,25.00
2018-08-13T14:27:41.000Z,24.90
2018-08-13T14:30:12.135Z,24.90
2018-08-13T14:32:40.521Z,24.80
2018-08-13T14:35:08.916Z,24.80
2018-08-13T14:37:37.285Z,24.80
2018-08-13T14:40:07.256Z,24.80
2018-08-13T14:42:35.592Z,24.70
2018-08-13T14:45:04.876Z,24.70
2018-08-13T14:47:33.255Z,24.80
2018-08-13T14:50:01.661Z,25.00
2018-08-13T14:52:30.093Z,25.40
2018-08-13T14:54:58.446Z,26.10
2018-08-13T14:57:27.380Z,26.40
2018-08-13T14:59:55.827Z,26.20
2018-08-13T15:02:24.241Z,25.90
2018-08-13T15:04:52.948Z,25.60
2018-08-13T15:07:21.383Z,25.30
2018-08-13T15:09:49.748Z,25.40
2018-08-13T15:12:18.160Z,25.50
2018-08-13T15:14:46.541Z,25.60
2018-08-13T15:17:14.931Z,25.50
2018-08-13T15:19:43.344Z,25.30
2018-08-13T15:22:11.724Z,25.10
2018-08-13T15:24:40.904Z,25.00
2018-08-13T15:27:09.299Z,24.90
2018-08-13T15:29:37.632Z,24.80
2018-08-13T15:32:06.053Z,24.70
2018-08-13T15:34:34.412Z,24.50
2018-08-13T15:37:02.893Z,24.40
2018-08-13T15:39:31.239Z,24.30
2018-08-13T15:41:59.631Z,24.30
2018-08-13T15:44:27.987Z,24.20
2018-08-13T15:46:56.384Z,24.10
2018-08-13T15:49:24.756Z,24.10
2018-08-13T15:51:53.118Z,24.00
2018-08-13T15:54:21.498Z,24.00
2018-08-13T15:56:49.856Z,23.90
2018-08-13T15:59:18.231Z,24.00
2018-08-13T16:01:46.677Z,24.00
2018-08-13T16:04:14.995Z,24.00
2018-08-13T16:06:43.364Z,24.10
2018-08-13T16:09:11.696Z,24.10
2018-08-13T16:11:40.065Z,24.10
2018-08-13T16:14:08.912Z,24.10
2018-08-13T16:16:37.284Z,24.10
2018-08-13T16:19:05.647Z,24.00
2018-08-13T16:21:34.278Z,23.90
2018-08-13T16:24:02.644Z,23.80
2018-08-13T16:26:31.033Z,23.80
2018-08-13T16:28:59.368Z,24.10
2018-08-13T16:31:27.788Z,24.10
2018-08-13T16:33:56.145Z,24.10
2018-08-13T16:36:24.493Z,24.30
2018-08-13T16:38:52.853Z,24.70
2018-08-13T16:41:21.229Z,25.10
2018-08-13T16:43:49.628Z,25.50
2018-08-13T16:46:17.988Z,25.80
2018-08-13T16:48:46.368Z,26.00
2018-08-13T16:51:14.725Z,26.10
2018-08-13T16:53:43.120Z,26.00
2018-08-13T16:56:11.541Z,25.80
2018-08-13T16:58:39.875Z,25.60
2018-08-13T17:01:08.250Z,25.30
2018-08-13T17:03:36.639Z,25.20
2018-08-13T17:06:05.021Z,24.90
2018-08-13T17:08:33.415Z,24.60
2018-08-13T17:11:01.781Z,24.50
2018-08-13T17:13:30.169Z,24.40
2018-08-13T17:15:58.540Z,24.30
2018-08-13T17:18:26.924Z,24.20
2018-08-13T17:20:55.319Z,24.10
2018-08-13T17:23:23.760Z,24.00
2018-08-13T17:25:52.140Z,24.00
2018-08-13T17:28:20.593Z,23.90
2018-08-13T17:30:48.912Z,23.80
2018-08-13T17:33:17.296Z,23.80
2018-08-13T17:35:45.681Z,23.70
2018-08-13T17:38:14.074Z,23.60
2018-08-13T17:40:42.443Z,23.50
2018-08-13T17:43:11.601Z,23.40
2018-08-13T17:45:39.828Z,23.30
2018-08-13T17:48:09.324Z,23.30
2018-08-13T17:50:37.695Z,23.20
2018-08-13T17:53:07.435Z,23.20
2018-08-13T17:55:35.827Z,23.20
2018-08-13T17:58:04.244Z,23.10
2018-08-13T18:00:32.610Z,23.10
2018-08-13T18:03:01.024Z,23.00
2018-08-13T18:05:29.409Z,23.00
2018-08-13T18:07:58.740Z,22.90
2018-08-13T18:10:29.857Z,22.90
2018-08-13T18:12:59.395Z,22.90
2018-08-13T18:15:27.831Z,22.90
2018-08-13T18:17:56.207Z,22.90
2018-08-13T18:20:24.576Z,22.90
2018-08-13T18:22:53.000Z,22.80
2018-08-13T18:25:21.401Z,22.70
2018-08-13T18:27:50.772Z,22.60
2018-08-13T18:30:21.288Z,22.60
2018-08-13T18:32:49.823Z,22.50
2018-08-13T18:35:18.257Z,22.50
2018-08-13T18:37:46.675Z,22.40
2018-08-13T18:40:25.382Z,22.30
2018-08-13T18:42:53.799Z,22.20
2018-08-13T18:45:22.202Z,22.20
2018-08-13T18:47:51.164Z,22.20
2018-08-13T18:50:20.691Z,22.10
2018-08-13T18:52:49.082Z,22.00
2018-08-13T18:55:20.703Z,21.90
2018-08-13T18:57:49.415Z,21.90
2018-08-13T19:00:21.024Z,21.80
2018-08-13T19:02:49.472Z,21.80
2018-08-13T19:05:18.465Z,21.80
2018-08-13T19:07:47.431Z,21.70
2018-08-13T19:10:16.780Z,21.70
2018-08-13T19:12:45.132Z,21.60
2018-08-13T19:15:18.560Z,21.60
2018-08-13T19:17:46.955Z,21.60
2018-08-13T19:20:15.733Z,21.50
2018-08-13T19:22:44.577Z,21.40
2018-08-13T19:25:15.452Z,21.30
2018-08-13T19:27:44.141Z,21.20
2018-08-13T19:30:14.364Z,21.10
2018-08-13T19:32:42.887Z,21.00
2018-08-13T19:35:11.535Z,20.90
2018-08-13T19:37:40.495Z,20.70
2018-08-13T19:40:11.157Z,20.70
2018-08-13T19:42:39.535Z,20.60
2018-08-13T19:45:09.364Z,20.50
2018-08-13T19:47:37.800Z,20.50
2018-08-13T19:50:07.709Z,20.40
2018-08-13T19:52:36.046Z,20.30
2018-08-13T19:55:04.538Z,20.30
2018-08-13T19:57:32.921Z,20.30
2018-08-13T20:00:01.311Z,20.30
2018-08-13T20:02:29.676Z,20.30
2018-08-13T20:04:58.101Z,20.30
2018-08-13T20:07:26.459Z,20.20
2018-08-13T20:09:54.831Z,20.20
2018-08-13T20:12:23.185Z,20.10
2018-08-13T20:14:51.570Z,20.10
2018-08-13T20:17:20.664Z,20.10
2018-08-13T20:19:49.060Z,20.10
2018-08-13T20:22:17.418Z,20.10
2018-08-13T20:24:45.860Z,20.10
2018-08-13T20:27:14.207Z,20.10
2018-08-13T20:29:42.612Z,20.10
2018-08-13T20:32:11.325Z,20.10
2018-08-13T20:34:39.712Z,20.10
2018-08-13T20:37:08.154Z,20.10
2018-08-13T20:39:36.476Z,20.10
2018-08-13T20:42:04.896Z,20.00
2018-08-13T20:44:33.269Z,20.00
2018-08-13T20:47:01.680Z,20.00
2018-08-13T20:49:30.049Z,20.00
2018-08-13T20:51:58.471Z,19.90
2018-08-13T20:54:26.836Z,19.90
2018-08-13T20:56:55.289Z,19.90
2018-08-13T20:59:23.676Z,19.90
2018-08-13T21:01:52.076Z,19.80
2018-08-13T21:04:20.423Z,19.70
2018-08-13T21:06:48.809Z,19.70
2018-08-13T21:09:17.205Z,19.60
2018-08-13T21:11:45.610Z,19.60
2018-08-13T21:14:14.010Z,19.60
2018-08-13T21:16:42.391Z,19.50
2018-08-13T21:19:10.758Z,19.40
2018-08-13T21:21:39.169Z,19.30
2018-08-13T21:24:07.592Z,19.30
2018-08-13T21:26:35.983Z,19.30
2018-08-13T21:29:04.371Z,19.30
2018-08-13T21:31:32.794Z,19.20
2018-08-13T21:34:01.137Z,19.20
2018-08-13T21:36:29.550Z,19.20
2018-08-13T21:38:57.913Z,19.20
2018-08-13T21:41:26.290Z,19.20
2018-08-13T21:43:55.436Z,19.10
2018-08-13T21:46:23.835Z,19.10
2018-08-13T21:48:52.691Z,19.10
2018-08-13T21:51:21.124Z,19.10
2018-08-13T21:53:49.481Z,19.10
2018-08-13T21:56:17.831Z,19.10
2018-08-13T21:58:46.213Z,19.00
2018-08-13T22:01:21.428Z,19.00
2018-08-13T22:03:50.584Z,19.00
2018-08-13T22:06:20.833Z,19.00
2018-08-13T22:08:52.100Z,19.00
2018-08-13T22:11:23.589Z,19.00
2018-08-13T22:13:51.984Z,19.00
2018-08-13T22:16:20.499Z,19.00
2018-08-13T22:18:48.866Z,19.00
2018-08-13T22:21:17.265Z,18.90
2018-08-13T22:23:57.001Z,18.90
2018-08-13T22:26:25.364Z,18.90
2018-08-13T22:28:54.164Z,18.80
2018-08-13T22:31:25.560Z,18.80
2018-08-13T22:36:33.770Z,18.80
2018-08-13T22:39:02.139Z,18.80
2018-08-13T22:41:30.511Z,18.80
2018-08-13T22:43:58.861Z,18.70
2018-08-13T22:46:27.239Z,18.70
2018-08-13T22:48:55.577Z,18.70
2018-08-13T22:51:23.955Z,18.70
2018-08-13T22:53:52.325Z,18.70
2018-08-13T22:56:20.716Z,18.70
2018-08-13T22:58:49.100Z,18.70
2018-08-13T23:01:17.488Z,18.70
2018-08-13T23:03:45.884Z,18.70
2018-08-13T23:06:14.268Z,18.60
2018-08-13T23:08:42.692Z,18.60
2018-08-13T23:11:11.063Z,18.60
2018-08-13T23:13:39.465Z,18.60
2018-08-13T23:16:07.847Z,18.50
2018-08-13T23:18:36.244Z,18.50
2018-08-13T23:21:04.624Z,18.50
2018-08-13T23:23:32.999Z,18.50
2018-08-13T23:26:01.375Z,18.40
2018-08-13T23:28:29.780Z,18.40
2018-08-13T23:30:58.207Z,18.40
2018-08-13T23:33:26.600Z,18.40
2018-08-13T23:35:54.979Z,18.30
2018-08-13T23:38:23.365Z,18.30
2018-08-13T23:40:51.721Z,18.30
2018-08-13T23:43:20.121Z,18.30
2018-08-13T23:45:48.493Z,18.30
2018-08-13T23:48:16.883Z,18.30
2018-08-13T23:50:45.237Z,18.30
2018-08-13T23:53:13.643Z,18.30
2018-08-13T23:55:42.390Z,18.30
2018-08-13T23:58:13.055Z,18.20
